Terminal Aerodrome Forecast
Issued by NWS

Home | Current Version | Previous Version | Text Only | Print | Product List | Glossary On
Versions: 1 2 3 4 5 6 7 8 9 10 11 12 13
108
FTUS45 KVEF 261125
TAFDAG
TAF
KDAG 261125Z 2612/2712 26018KT P6SM SKC
     FM261600 26023G32KT P6SM SKC
     FM270800 25015KT P6SM SKC=

USA.gov is the U.S. government's official web portal to all federal, state and local government web resources and services.